sensor_id;sensor_type;location;lat;lon;timestamp;P1;durP1;ratioP1;P2;durP2;ratioP2
26040;SDS011;13816;53.628;9.950;2023-04-03T00:01:36;7.00;;;2.83;;
26040;SDS011;13816;53.628;9.950;2023-04-03T00:04:04;5.87;;;2.63;;
26040;SDS011;13816;53.628;9.950;2023-04-03T00:06:30;6.30;;;3.23;;
26040;SDS011;13816;53.628;9.950;2023-04-03T00:08:56;7.20;;;3.30;;
26040;SDS011;13816;53.628;9.950;2023-04-03T00:11:23;7.37;;;3.80;;
26040;SDS011;13816;53.628;9.950;2023-04-03T00:13:49;10.63;;;3.60;;
26040;SDS011;13816;53.628;9.950;2023-04-03T00:16:15;7.43;;;3.47;;
26040;SDS011;13816;53.628;9.950;2023-04-03T00:18:41;6.87;;;3.47;;
26040;SDS011;13816;53.628;9.950;2023-04-03T00:21:09;6.70;;;3.10;;
26040;SDS011;13816;53.628;9.950;2023-04-03T00:23:35;9.57;;;4.60;;
26040;SDS011;13816;53.628;9.950;2023-04-03T00:26:01;6.53;;;3.50;;
26040;SDS011;13816;53.628;9.950;2023-04-03T00:28:27;10.10;;;4.07;;
26040;SDS011;13816;53.628;9.950;2023-04-03T00:30:53;7.20;;;3.80;;
26040;SDS011;13816;53.628;9.950;2023-04-03T00:33:20;19.20;;;4.83;;
26040;SDS011;13816;53.628;9.950;2023-04-03T00:35:49;9.30;;;3.97;;
26040;SDS011;13816;53.628;9.950;2023-04-03T00:38:15;9.10;;;3.83;;
26040;SDS011;13816;53.628;9.950;2023-04-03T00:40:43;9.80;;;4.20;;
26040;SDS011;13816;53.628;9.950;2023-04-03T00:43:17;12.57;;;5.13;;
26040;SDS011;13816;53.628;9.950;2023-04-03T00:45:44;10.87;;;4.30;;
26040;SDS011;13816;53.628;9.950;2023-04-03T00:48:17;16.03;;;4.47;;
26040;SDS011;13816;53.628;9.950;2023-04-03T00:50:44;10.93;;;3.77;;
26040;SDS011;13816;53.628;9.950;2023-04-03T00:53:16;10.50;;;4.37;;
26040;SDS011;13816;53.628;9.950;2023-04-03T00:55:43;6.67;;;3.30;;
26040;SDS011;13816;53.628;9.950;2023-04-03T00:58:10;4.60;;;3.07;;
26040;SDS011;13816;53.628;9.950;2023-04-03T01:00:37;2.90;;;2.47;;
26040;SDS011;13816;53.628;9.950;2023-04-03T01:03:04;4.90;;;2.40;;
26040;SDS011;13816;53.628;9.950;2023-04-03T01:05:30;7.40;;;2.90;;
26040;SDS011;13816;53.628;9.950;2023-04-03T01:07:59;5.10;;;2.97;;
26040;SDS011;13816;53.628;9.950;2023-04-03T01:10:25;9.90;;;3.20;;
26040;SDS011;13816;53.628;9.950;2023-04-03T01:12:51;12.30;;;3.60;;
26040;SDS011;13816;53.628;9.950;2023-04-03T01:15:19;6.30;;;2.57;;
26040;SDS011;13816;53.628;9.950;2023-04-03T01:17:46;4.13;;;2.50;;
26040;SDS011;13816;53.628;9.950;2023-04-03T01:25:21;3.83;;;2.37;;
26040;SDS011;13816;53.628;9.950;2023-04-03T01:27:48;7.83;;;3.00;;
26040;SDS011;13816;53.628;9.950;2023-04-03T01:30:14;7.00;;;2.57;;
26040;SDS011;13816;53.628;9.950;2023-04-03T01:32:42;7.57;;;2.93;;
26040;SDS011;13816;53.628;9.950;2023-04-03T01:35:09;8.23;;;3.00;;
26040;SDS011;13816;53.628;9.950;2023-04-03T01:37:35;9.17;;;2.60;;
26040;SDS011;13816;53.628;9.950;2023-04-03T01:40:01;9.47;;;2.37;;
26040;SDS011;13816;53.628;9.950;2023-04-03T01:42:28;4.20;;;2.73;;
26040;SDS011;13816;53.628;9.950;2023-04-03T01:44:54;6.87;;;3.13;;
26040;SDS011;13816;53.628;9.950;2023-04-03T01:47:21;7.77;;;2.67;;
26040;SDS011;13816;53.628;9.950;2023-04-03T01:49:47;5.90;;;2.90;;
26040;SDS011;13816;53.628;9.950;2023-04-03T01:52:14;4.40;;;2.27;;
26040;SDS011;13816;53.628;9.950;2023-04-03T01:54:40;4.70;;;2.80;;
26040;SDS011;13816;53.628;9.950;2023-04-03T01:57:06;4.70;;;2.60;;
26040;SDS011;13816;53.628;9.950;2023-04-03T01:59:33;14.97;;;2.77;;
26040;SDS011;13816;53.628;9.950;2023-04-03T02:02:00;4.90;;;2.53;;
26040;SDS011;13816;53.628;9.950;2023-04-03T02:04:26;15.27;;;3.00;;
26040;SDS011;13816;53.628;9.950;2023-04-03T02:06:52;6.73;;;2.87;;
26040;SDS011;13816;53.628;9.950;2023-04-03T02:09:18;4.23;;;1.97;;
26040;SDS011;13816;53.628;9.950;2023-04-03T02:11:44;12.70;;;2.40;;
26040;SDS011;13816;53.628;9.950;2023-04-03T02:14:12;6.50;;;2.13;;
26040;SDS011;13816;53.628;9.950;2023-04-03T02:16:38;4.23;;;2.80;;
26040;SDS011;13816;53.628;9.950;2023-04-03T02:19:04;4.30;;;2.70;;
26040;SDS011;13816;53.628;9.950;2023-04-03T02:21:31;7.53;;;3.93;;
26040;SDS011;13816;53.628;9.950;2023-04-03T02:23:57;6.03;;;2.37;;
26040;SDS011;13816;53.628;9.950;2023-04-03T02:26:23;7.30;;;2.50;;
26040;SDS011;13816;53.628;9.950;2023-04-03T02:28:50;9.77;;;2.43;;
26040;SDS011;13816;53.628;9.950;2023-04-03T02:31:16;5.30;;;2.50;;
26040;SDS011;13816;53.628;9.950;2023-04-03T02:33:44;4.30;;;2.07;;
26040;SDS011;13816;53.628;9.950;2023-04-03T02:36:13;8.30;;;2.60;;
26040;SDS011;13816;53.628;9.950;2023-04-03T02:38:42;3.07;;;1.83;;
26040;SDS011;13816;53.628;9.950;2023-04-03T02:41:10;8.10;;;2.97;;
26040;SDS011;13816;53.628;9.950;2023-04-03T02:43:36;6.63;;;1.97;;
26040;SDS011;13816;53.628;9.950;2023-04-03T02:46:04;6.30;;;3.17;;
26040;SDS011;13816;53.628;9.950;2023-04-03T02:48:30;5.13;;;2.60;;
26040;SDS011;13816;53.628;9.950;2023-04-03T02:50:56;5.10;;;2.80;;
26040;SDS011;13816;53.628;9.950;2023-04-03T02:53:23;7.37;;;2.47;;
26040;SDS011;13816;53.628;9.950;2023-04-03T02:55:50;6.53;;;2.80;;
26040;SDS011;13816;53.628;9.950;2023-04-03T02:58:16;4.47;;;2.43;;
26040;SDS011;13816;53.628;9.950;2023-04-03T03:00:42;5.90;;;2.63;;
26040;SDS011;13816;53.628;9.950;2023-04-03T03:03:08;4.60;;;2.17;;
26040;SDS011;13816;53.628;9.950;2023-04-03T03:05:34;3.27;;;1.80;;
26040;SDS011;13816;53.628;9.950;2023-04-03T03:08:01;2.73;;;1.90;;
26040;SDS011;13816;53.628;9.950;2023-04-03T03:10:27;3.30;;;2.17;;
26040;SDS011;13816;53.628;9.950;2023-04-03T03:12:53;4.70;;;2.60;;
26040;SDS011;13816;53.628;9.950;2023-04-03T03:15:19;6.97;;;2.77;;
26040;SDS011;13816;53.628;9.950;2023-04-03T03:17:47;4.87;;;2.20;;
26040;SDS011;13816;53.628;9.950;2023-04-03T03:20:13;5.03;;;2.30;;
26040;SDS011;13816;53.628;9.950;2023-04-03T03:22:40;5.83;;;2.83;;
26040;SDS011;13816;53.628;9.950;2023-04-03T03:25:06;4.20;;;2.53;;
26040;SDS011;13816;53.628;9.950;2023-04-03T03:27:33;4.53;;;2.50;;
26040;SDS011;13816;53.628;9.950;2023-04-03T03:29:59;3.13;;;2.07;;
26040;SDS011;13816;53.628;9.950;2023-04-03T03:32:25;3.57;;;2.30;;
26040;SDS011;13816;53.628;9.950;2023-04-03T03:34:52;6.53;;;2.53;;
26040;SDS011;13816;53.628;9.950;2023-04-03T03:37:19;4.57;;;2.27;;
26040;SDS011;13816;53.628;9.950;2023-04-03T03:39:45;8.13;;;2.87;;
26040;SDS011;13816;53.628;9.950;2023-04-03T03:42:11;3.50;;;2.70;;
26040;SDS011;13816;53.628;9.950;2023-04-03T03:44:38;3.87;;;2.70;;
26040;SDS011;13816;53.628;9.950;2023-04-03T03:47:04;5.43;;;2.60;;
26040;SDS011;13816;53.628;9.950;2023-04-03T03:49:31;3.20;;;2.33;;
26040;SDS011;13816;53.628;9.950;2023-04-03T03:51:57;8.17;;;3.40;;
26040;SDS011;13816;53.628;9.950;2023-04-03T03:54:23;3.00;;;2.03;;
26040;SDS011;13816;53.628;9.950;2023-04-03T03:56:50;5.27;;;2.30;;
26040;SDS011;13816;53.628;9.950;2023-04-03T03:59:16;4.83;;;2.30;;
26040;SDS011;13816;53.628;9.950;2023-04-03T04:01:43;8.50;;;2.60;;
26040;SDS011;13816;53.628;9.950;2023-04-03T04:04:09;4.73;;;2.60;;
26040;SDS011;13816;53.628;9.950;2023-04-03T04:06:36;6.20;;;2.90;;
26040;SDS011;13816;53.628;9.950;2023-04-03T04:09:04;5.83;;;2.53;;
26040;SDS011;13816;53.628;9.950;2023-04-03T04:11:30;2.93;;;2.33;;
26040;SDS011;13816;53.628;9.950;2023-04-03T04:13:58;7.93;;;2.70;;
26040;SDS011;13816;53.628;9.950;2023-04-03T04:16:27;4.47;;;2.57;;
26040;SDS011;13816;53.628;9.950;2023-04-03T04:18:55;7.67;;;2.93;;
26040;SDS011;13816;53.628;9.950;2023-04-03T04:21:22;4.10;;;2.50;;
26040;SDS011;13816;53.628;9.950;2023-04-03T04:23:50;7.13;;;2.40;;
26040;SDS011;13816;53.628;9.950;2023-04-03T04:26:17;5.07;;;3.07;;
26040;SDS011;13816;53.628;9.950;2023-04-03T04:28:43;4.00;;;2.67;;
26040;SDS011;13816;53.628;9.950;2023-04-03T04:31:10;9.83;;;2.73;;
26040;SDS011;13816;53.628;9.950;2023-04-03T04:33:36;5.90;;;2.20;;
26040;SDS011;13816;53.628;9.950;2023-04-03T04:36:04;5.03;;;2.40;;
26040;SDS011;13816;53.628;9.950;2023-04-03T04:38:31;12.20;;;3.50;;
26040;SDS011;13816;53.628;9.950;2023-04-03T04:40:57;4.43;;;2.80;;
26040;SDS011;13816;53.628;9.950;2023-04-03T04:43:23;11.13;;;3.40;;
26040;SDS011;13816;53.628;9.950;2023-04-03T04:46:02;3.87;;;2.77;;
26040;SDS011;13816;53.628;9.950;2023-04-03T04:48:32;3.37;;;2.50;;
26040;SDS011;13816;53.628;9.950;2023-04-03T04:50:59;4.23;;;2.47;;
26040;SDS011;13816;53.628;9.950;2023-04-03T04:53:25;4.77;;;2.80;;
26040;SDS011;13816;53.628;9.950;2023-04-03T04:55:52;6.07;;;2.40;;
26040;SDS011;13816;53.628;9.950;2023-04-03T04:58:18;8.67;;;4.00;;
26040;SDS011;13816;53.628;9.950;2023-04-03T05:00:45;4.67;;;2.90;;
26040;SDS011;13816;53.628;9.950;2023-04-03T05:03:12;6.77;;;3.00;;
26040;SDS011;13816;53.628;9.950;2023-04-03T05:05:39;6.33;;;2.80;;
26040;SDS011;13816;53.628;9.950;2023-04-03T05:08:05;3.87;;;2.63;;
26040;SDS011;13816;53.628;9.950;2023-04-03T05:10:33;7.60;;;3.47;;
26040;SDS011;13816;53.628;9.950;2023-04-03T05:13:00;4.77;;;2.70;;
26040;SDS011;13816;53.628;9.950;2023-04-03T05:15:27;4.60;;;2.93;;
26040;SDS011;13816;53.628;9.950;2023-04-03T05:17:53;3.97;;;2.30;;
26040;SDS011;13816;53.628;9.950;2023-04-03T05:20:20;6.13;;;2.90;;
26040;SDS011;13816;53.628;9.950;2023-04-03T05:22:47;5.63;;;2.37;;
26040;SDS011;13816;53.628;9.950;2023-04-03T05:25:13;8.00;;;3.20;;
26040;SDS011;13816;53.628;9.950;2023-04-03T05:27:42;3.67;;;2.83;;
26040;SDS011;13816;53.628;9.950;2023-04-03T05:30:09;7.70;;;2.73;;
26040;SDS011;13816;53.628;9.950;2023-04-03T05:32:37;12.20;;;3.80;;
26040;SDS011;13816;53.628;9.950;2023-04-03T05:35:15;9.07;;;3.60;;
26040;SDS011;13816;53.628;9.950;2023-04-03T05:37:42;8.03;;;2.50;;
26040;SDS011;13816;53.628;9.950;2023-04-03T05:40:09;5.93;;;3.70;;
26040;SDS011;13816;53.628;9.950;2023-04-03T05:42:38;8.23;;;2.87;;
26040;SDS011;13816;53.628;9.950;2023-04-03T05:45:05;7.67;;;3.40;;
26040;SDS011;13816;53.628;9.950;2023-04-03T05:47:32;6.30;;;2.70;;
26040;SDS011;13816;53.628;9.950;2023-04-03T05:49:58;5.57;;;2.33;;
26040;SDS011;13816;53.628;9.950;2023-04-03T05:54:51;6.47;;;4.03;;
26040;SDS011;13816;53.628;9.950;2023-04-03T05:57:22;18.13;;;3.97;;
26040;SDS011;13816;53.628;9.950;2023-04-03T05:59:49;4.57;;;3.53;;
26040;SDS011;13816;53.628;9.950;2023-04-03T06:02:17;8.93;;;3.97;;
26040;SDS011;13816;53.628;9.950;2023-04-03T06:04:45;6.83;;;3.40;;
26040;SDS011;13816;53.628;9.950;2023-04-03T06:07:13;8.80;;;4.60;;
26040;SDS011;13816;53.628;9.950;2023-04-03T06:09:41;6.70;;;3.60;;
26040;SDS011;13816;53.628;9.950;2023-04-03T06:12:07;8.90;;;5.40;;
26040;SDS011;13816;53.628;9.950;2023-04-03T06:14:34;6.67;;;4.43;;
26040;SDS011;13816;53.628;9.950;2023-04-03T06:17:01;11.40;;;3.87;;
26040;SDS011;13816;53.628;9.950;2023-04-03T06:19:27;11.07;;;4.30;;
26040;SDS011;13816;53.628;9.950;2023-04-03T06:21:55;9.30;;;4.53;;
26040;SDS011;13816;53.628;9.950;2023-04-03T06:24:23;11.30;;;4.37;;
26040;SDS011;13816;53.628;9.950;2023-04-03T06:26:50;11.40;;;4.43;;
26040;SDS011;13816;53.628;9.950;2023-04-03T06:29:17;10.63;;;4.17;;
26040;SDS011;13816;53.628;9.950;2023-04-03T06:31:44;5.40;;;4.00;;
26040;SDS011;13816;53.628;9.950;2023-04-03T06:34:10;7.83;;;4.00;;
26040;SDS011;13816;53.628;9.950;2023-04-03T06:36:36;7.20;;;4.27;;
26040;SDS011;13816;53.628;9.950;2023-04-03T06:39:03;8.97;;;4.17;;
26040;SDS011;13816;53.628;9.950;2023-04-03T06:41:30;11.00;;;4.10;;
26040;SDS011;13816;53.628;9.950;2023-04-03T06:43:56;16.63;;;3.47;;
26040;SDS011;13816;53.628;9.950;2023-04-03T06:46:23;8.13;;;2.73;;
26040;SDS011;13816;53.628;9.950;2023-04-03T06:48:49;7.00;;;3.50;;
26040;SDS011;13816;53.628;9.950;2023-04-03T06:53:45;6.40;;;3.10;;
26040;SDS011;13816;53.628;9.950;2023-04-03T06:56:12;5.93;;;3.00;;
26040;SDS011;13816;53.628;9.950;2023-04-03T06:58:38;10.10;;;3.30;;
26040;SDS011;13816;53.628;9.950;2023-04-03T07:01:04;10.20;;;3.67;;
26040;SDS011;13816;53.628;9.950;2023-04-03T07:03:30;14.07;;;2.90;;
26040;SDS011;13816;53.628;9.950;2023-04-03T07:05:56;8.60;;;2.67;;
26040;SDS011;13816;53.628;9.950;2023-04-03T07:08:23;7.63;;;2.87;;
26040;SDS011;13816;53.628;9.950;2023-04-03T07:10:51;7.87;;;3.40;;
26040;SDS011;13816;53.628;9.950;2023-04-03T07:13:17;6.47;;;2.30;;
26040;SDS011;13816;53.628;9.950;2023-04-03T07:15:43;8.87;;;2.63;;
26040;SDS011;13816;53.628;9.950;2023-04-03T07:18:09;5.67;;;2.07;;
26040;SDS011;13816;53.628;9.950;2023-04-03T07:20:35;4.67;;;1.70;;
26040;SDS011;13816;53.628;9.950;2023-04-03T07:23:01;3.33;;;1.97;;
26040;SDS011;13816;53.628;9.950;2023-04-03T07:25:28;4.13;;;1.97;;
26040;SDS011;13816;53.628;9.950;2023-04-03T07:27:54;7.50;;;2.10;;
26040;SDS011;13816;53.628;9.950;2023-04-03T07:30:21;2.77;;;1.40;;
26040;SDS011;13816;53.628;9.950;2023-04-03T07:32:47;2.60;;;1.80;;
26040;SDS011;13816;53.628;9.950;2023-04-03T07:35:13;2.90;;;1.17;;
26040;SDS011;13816;53.628;9.950;2023-04-03T07:37:39;5.97;;;1.90;;
26040;SDS011;13816;53.628;9.950;2023-04-03T07:40:06;4.50;;;1.57;;
26040;SDS011;13816;53.628;9.950;2023-04-03T07:42:34;6.43;;;1.70;;
26040;SDS011;13816;53.628;9.950;2023-04-03T07:45:01;2.60;;;1.93;;
26040;SDS011;13816;53.628;9.950;2023-04-03T07:47:28;3.20;;;1.37;;
26040;SDS011;13816;53.628;9.950;2023-04-03T07:49:54;3.77;;;1.60;;
26040;SDS011;13816;53.628;9.950;2023-04-03T07:52:22;4.20;;;1.60;;
26040;SDS011;13816;53.628;9.950;2023-04-03T07:54:48;8.63;;;2.20;;
26040;SDS011;13816;53.628;9.950;2023-04-03T07:57:14;5.40;;;1.77;;
26040;SDS011;13816;53.628;9.950;2023-04-03T07:59:41;4.50;;;1.87;;
26040;SDS011;13816;53.628;9.950;2023-04-03T08:02:11;5.93;;;1.30;;
26040;SDS011;13816;53.628;9.950;2023-04-03T08:04:37;6.20;;;1.20;;
26040;SDS011;13816;53.628;9.950;2023-04-03T08:07:04;10.83;;;2.27;;
26040;SDS011;13816;53.628;9.950;2023-04-03T08:09:30;5.03;;;1.60;;
26040;SDS011;13816;53.628;9.950;2023-04-03T08:11:57;7.27;;;2.13;;
26040;SDS011;13816;53.628;9.950;2023-04-03T08:14:23;2.97;;;1.50;;
26040;SDS011;13816;53.628;9.950;2023-04-03T08:16:50;2.37;;;1.17;;
26040;SDS011;13816;53.628;9.950;2023-04-03T08:19:16;5.13;;;1.70;;
26040;SDS011;13816;53.628;9.950;2023-04-03T08:21:43;2.67;;;1.20;;
26040;SDS011;13816;53.628;9.950;2023-04-03T08:24:10;3.83;;;2.30;;
26040;SDS011;13816;53.628;9.950;2023-04-03T08:26:36;3.10;;;1.70;;
26040;SDS011;13816;53.628;9.950;2023-04-03T08:29:03;6.57;;;2.17;;
26040;SDS011;13816;53.628;9.950;2023-04-03T08:31:29;3.30;;;1.43;;
26040;SDS011;13816;53.628;9.950;2023-04-03T08:33:56;2.70;;;1.33;;
26040;SDS011;13816;53.628;9.950;2023-04-03T08:36:26;5.83;;;1.60;;
26040;SDS011;13816;53.628;9.950;2023-04-03T08:38:53;2.20;;;1.37;;
26040;SDS011;13816;53.628;9.950;2023-04-03T08:41:33;3.00;;;1.77;;
26040;SDS011;13816;53.628;9.950;2023-04-03T08:46:32;4.03;;;1.40;;
26040;SDS011;13816;53.628;9.950;2023-04-03T08:49:04;2.97;;;1.90;;
26040;SDS011;13816;53.628;9.950;2023-04-03T08:51:36;5.00;;;1.73;;
26040;SDS011;13816;53.628;9.950;2023-04-03T08:54:04;5.60;;;1.70;;
26040;SDS011;13816;53.628;9.950;2023-04-03T08:56:34;3.20;;;1.30;;
26040;SDS011;13816;53.628;9.950;2023-04-03T08:59:09;4.50;;;1.93;;
26040;SDS011;13816;53.628;9.950;2023-04-03T09:01:41;3.73;;;1.77;;
26040;SDS011;13816;53.628;9.950;2023-04-03T09:04:13;5.93;;;1.70;;
26040;SDS011;13816;53.628;9.950;2023-04-03T09:06:43;4.37;;;1.63;;
26040;SDS011;13816;53.628;9.950;2023-04-03T09:09:33;2.40;;;1.70;;
26040;SDS011;13816;53.628;9.950;2023-04-03T09:55:45;4.03;;;1.47;;
26040;SDS011;13816;53.628;9.950;2023-04-03T09:58:33;3.30;;;1.20;;
26040;SDS011;13816;53.628;9.950;2023-04-03T11:07:24;2.67;;;1.40;;
26040;SDS011;13816;53.628;9.950;2023-04-03T12:54:02;6.13;;;1.10;;
26040;SDS011;13816;53.628;9.950;2023-04-03T12:56:32;4.40;;;1.30;;
26040;SDS011;13816;53.628;9.950;2023-04-03T12:59:16;3.97;;;1.20;;
26040;SDS011;13816;53.628;9.950;2023-04-03T13:11:50;3.33;;;1.27;;
26040;SDS011;13816;53.628;9.950;2023-04-03T13:14:19;3.93;;;1.30;;
26040;SDS011;13816;53.628;9.950;2023-04-03T13:16:58;5.23;;;1.67;;
26040;SDS011;13816;53.628;9.950;2023-04-03T13:19:25;3.07;;;1.37;;
26040;SDS011;13816;53.628;9.950;2023-04-03T13:22:00;3.47;;;1.20;;
26040;SDS011;13816;53.628;9.950;2023-04-03T13:24:29;4.70;;;1.60;;
26040;SDS011;13816;53.628;9.950;2023-04-03T13:26:58;5.80;;;1.77;;
26040;SDS011;13816;53.628;9.950;2023-04-03T13:29:32;3.23;;;1.27;;
26040;SDS011;13816;53.628;9.950;2023-04-03T13:32:03;2.53;;;1.30;;
26040;SDS011;13816;53.628;9.950;2023-04-03T13:34:38;3.47;;;1.80;;
26040;SDS011;13816;53.628;9.950;2023-04-03T13:37:07;8.97;;;1.27;;
26040;SDS011;13816;53.628;9.950;2023-04-03T13:43:28;5.63;;;1.90;;
26040;SDS011;13816;53.628;9.950;2023-04-03T13:49:17;3.40;;;1.47;;
26040;SDS011;13816;53.628;9.950;2023-04-03T13:51:43;3.87;;;1.47;;
26040;SDS011;13816;53.628;9.950;2023-04-03T13:54:20;6.03;;;1.40;;
26040;SDS011;13816;53.628;9.950;2023-04-03T13:56:59;5.70;;;1.20;;
26040;SDS011;13816;53.628;9.950;2023-04-03T13:59:35;5.80;;;1.67;;
26040;SDS011;13816;53.628;9.950;2023-04-03T14:02:10;7.33;;;1.60;;
26040;SDS011;13816;53.628;9.950;2023-04-03T14:07:13;4.10;;;1.50;;
26040;SDS011;13816;53.628;9.950;2023-04-03T14:09:42;1.90;;;1.17;;
26040;SDS011;13816;53.628;9.950;2023-04-03T14:12:53;6.30;;;1.83;;
26040;SDS011;13816;53.628;9.950;2023-04-03T14:15:06;2.37;;;1.30;;
26040;SDS011;13816;53.628;9.950;2023-04-03T14:17:36;3.67;;;1.60;;
26040;SDS011;13816;53.628;9.950;2023-04-03T14:20:04;4.57;;;1.30;;
26040;SDS011;13816;53.628;9.950;2023-04-03T14:22:31;2.73;;;1.50;;
26040;SDS011;13816;53.628;9.950;2023-04-03T14:24:57;2.20;;;1.10;;
26040;SDS011;13816;53.628;9.950;2023-04-03T14:29:50;3.00;;;1.40;;
26040;SDS011;13816;53.628;9.950;2023-04-03T14:32:26;2.93;;;1.30;;
26040;SDS011;13816;53.628;9.950;2023-04-03T14:34:52;5.40;;;1.37;;
26040;SDS011;13816;53.628;9.950;2023-04-03T14:37:21;4.07;;;1.57;;
26040;SDS011;13816;53.628;9.950;2023-04-03T14:39:52;2.17;;;1.40;;
26040;SDS011;13816;53.628;9.950;2023-04-03T14:42:21;6.13;;;1.40;;
26040;SDS011;13816;53.628;9.950;2023-04-03T14:44:50;2.90;;;1.50;;
26040;SDS011;13816;53.628;9.950;2023-04-03T14:47:18;5.50;;;1.73;;
26040;SDS011;13816;53.628;9.950;2023-04-03T14:49:45;5.30;;;2.13;;
26040;SDS011;13816;53.628;9.950;2023-04-03T14:52:19;3.30;;;1.83;;
26040;SDS011;13816;53.628;9.950;2023-04-03T14:54:46;1.90;;;1.10;;
26040;SDS011;13816;53.628;9.950;2023-04-03T14:57:13;3.00;;;1.50;;
26040;SDS011;13816;53.628;9.950;2023-04-03T14:59:40;1.70;;;1.50;;
26040;SDS011;13816;53.628;9.950;2023-04-03T15:02:40;7.80;;;1.70;;
26040;SDS011;13816;53.628;9.950;2023-04-03T15:05:00;2.83;;;1.50;;
26040;SDS011;13816;53.628;9.950;2023-04-03T15:07:28;3.07;;;1.77;;
26040;SDS011;13816;53.628;9.950;2023-04-03T15:09:55;4.93;;;1.97;;
26040;SDS011;13816;53.628;9.950;2023-04-03T15:12:22;2.10;;;1.43;;
26040;SDS011;13816;53.628;9.950;2023-04-03T15:14:48;3.60;;;1.80;;
26040;SDS011;13816;53.628;9.950;2023-04-03T15:17:15;2.60;;;1.40;;
26040;SDS011;13816;53.628;9.950;2023-04-03T15:19:42;3.97;;;1.97;;
26040;SDS011;13816;53.628;9.950;2023-04-03T15:22:12;4.20;;;1.70;;
26040;SDS011;13816;53.628;9.950;2023-04-03T15:24:38;1.73;;;1.30;;
26040;SDS011;13816;53.628;9.950;2023-04-03T15:27:04;6.47;;;1.73;;
26040;SDS011;13816;53.628;9.950;2023-04-03T15:29:31;2.20;;;1.53;;
26040;SDS011;13816;53.628;9.950;2023-04-03T15:31:57;3.07;;;1.30;;
26040;SDS011;13816;53.628;9.950;2023-04-03T15:34:23;4.97;;;1.73;;
26040;SDS011;13816;53.628;9.950;2023-04-03T15:36:49;6.33;;;1.53;;
26040;SDS011;13816;53.628;9.950;2023-04-03T15:39:18;2.83;;;1.43;;
26040;SDS011;13816;53.628;9.950;2023-04-03T15:41:45;4.50;;;1.60;;
26040;SDS011;13816;53.628;9.950;2023-04-03T15:44:11;1.67;;;1.20;;
26040;SDS011;13816;53.628;9.950;2023-04-03T15:46:38;4.63;;;1.77;;
26040;SDS011;13816;53.628;9.950;2023-04-03T15:49:06;4.00;;;1.90;;
26040;SDS011;13816;53.628;9.950;2023-04-03T15:51:32;1.30;;;1.20;;
26040;SDS011;13816;53.628;9.950;2023-04-03T15:53:58;4.40;;;1.40;;
26040;SDS011;13816;53.628;9.950;2023-04-03T15:56:27;3.23;;;1.43;;
26040;SDS011;13816;53.628;9.950;2023-04-03T15:58:53;6.03;;;1.47;;
26040;SDS011;13816;53.628;9.950;2023-04-03T16:01:19;3.23;;;1.53;;
26040;SDS011;13816;53.628;9.950;2023-04-03T16:04:00;3.83;;;1.40;;
26040;SDS011;13816;53.628;9.950;2023-04-03T16:06:26;2.47;;;1.70;;
26040;SDS011;13816;53.628;9.950;2023-04-03T16:08:56;5.57;;;1.90;;
26040;SDS011;13816;53.628;9.950;2023-04-03T16:11:28;5.50;;;2.17;;
26040;SDS011;13816;53.628;9.950;2023-04-03T16:13:55;3.00;;;1.80;;
26040;SDS011;13816;53.628;9.950;2023-04-03T16:16:21;3.37;;;1.60;;
26040;SDS011;13816;53.628;9.950;2023-04-03T16:18:47;1.90;;;1.17;;
26040;SDS011;13816;53.628;9.950;2023-04-03T16:21:14;2.60;;;1.63;;
26040;SDS011;13816;53.628;9.950;2023-04-03T16:23:41;7.23;;;2.10;;
26040;SDS011;13816;53.628;9.950;2023-04-03T16:26:07;4.90;;;1.90;;
26040;SDS011;13816;53.628;9.950;2023-04-03T16:28:33;7.40;;;2.10;;
26040;SDS011;13816;53.628;9.950;2023-04-03T16:30:59;3.03;;;1.90;;
26040;SDS011;13816;53.628;9.950;2023-04-03T16:33:26;4.40;;;2.40;;
26040;SDS011;13816;53.628;9.950;2023-04-03T16:35:52;3.20;;;2.03;;
26040;SDS011;13816;53.628;9.950;2023-04-03T16:38:18;6.40;;;1.60;;
26040;SDS011;13816;53.628;9.950;2023-04-03T16:40:47;3.50;;;1.53;;
26040;SDS011;13816;53.628;9.950;2023-04-03T16:43:14;2.83;;;1.70;;
26040;SDS011;13816;53.628;9.950;2023-04-03T16:45:40;4.20;;;1.80;;
26040;SDS011;13816;53.628;9.950;2023-04-03T16:48:06;3.37;;;1.73;;
26040;SDS011;13816;53.628;9.950;2023-04-03T16:50:33;6.03;;;2.00;;
26040;SDS011;13816;53.628;9.950;2023-04-03T16:52:59;6.43;;;1.93;;
26040;SDS011;13816;53.628;9.950;2023-04-03T16:55:28;3.83;;;1.80;;
26040;SDS011;13816;53.628;9.950;2023-04-03T16:57:54;5.53;;;2.30;;
26040;SDS011;13816;53.628;9.950;2023-04-03T17:00:20;2.83;;;1.90;;
26040;SDS011;13816;53.628;9.950;2023-04-03T17:02:47;2.87;;;1.63;;
26040;SDS011;13816;53.628;9.950;2023-04-03T17:05:16;4.93;;;1.60;;
26040;SDS011;13816;53.628;9.950;2023-04-03T17:07:42;4.20;;;2.00;;
26040;SDS011;13816;53.628;9.950;2023-04-03T17:10:08;3.07;;;1.90;;
26040;SDS011;13816;53.628;9.950;2023-04-03T17:12:35;4.47;;;2.20;;
26040;SDS011;13816;53.628;9.950;2023-04-03T17:15:01;6.37;;;2.83;;
26040;SDS011;13816;53.628;9.950;2023-04-03T17:17:27;2.47;;;2.00;;
26040;SDS011;13816;53.628;9.950;2023-04-03T17:19:53;5.30;;;2.03;;
26040;SDS011;13816;53.628;9.950;2023-04-03T17:22:19;6.13;;;1.83;;
26040;SDS011;13816;53.628;9.950;2023-04-03T17:24:46;2.90;;;2.03;;
26040;SDS011;13816;53.628;9.950;2023-04-03T17:27:12;3.93;;;1.70;;
26040;SDS011;13816;53.628;9.950;2023-04-03T17:29:42;6.33;;;1.97;;
26040;SDS011;13816;53.628;9.950;2023-04-03T17:32:08;6.67;;;2.00;;
26040;SDS011;13816;53.628;9.950;2023-04-03T17:34:34;7.63;;;1.90;;
26040;SDS011;13816;53.628;9.950;2023-04-03T17:37:01;3.90;;;1.77;;
26040;SDS011;13816;53.628;9.950;2023-04-03T17:39:27;4.07;;;2.00;;
26040;SDS011;13816;53.628;9.950;2023-04-03T17:41:53;5.63;;;2.30;;
26040;SDS011;13816;53.628;9.950;2023-04-03T17:44:20;4.07;;;1.97;;
26040;SDS011;13816;53.628;9.950;2023-04-03T17:46:46;4.17;;;2.30;;
26040;SDS011;13816;53.628;9.950;2023-04-03T17:49:12;4.40;;;1.93;;
26040;SDS011;13816;53.628;9.950;2023-04-03T17:51:39;2.73;;;1.83;;
26040;SDS011;13816;53.628;9.950;2023-04-03T17:54:05;5.50;;;2.07;;
26040;SDS011;13816;53.628;9.950;2023-04-03T17:56:31;5.27;;;2.10;;
26040;SDS011;13816;53.628;9.950;2023-04-03T17:58:57;5.13;;;2.27;;
26040;SDS011;13816;53.628;9.950;2023-04-03T18:01:31;4.87;;;2.33;;
26040;SDS011;13816;53.628;9.950;2023-04-03T18:03:58;4.00;;;1.67;;
26040;SDS011;13816;53.628;9.950;2023-04-03T18:06:26;7.40;;;2.00;;
26040;SDS011;13816;53.628;9.950;2023-04-03T18:08:57;5.70;;;2.30;;
26040;SDS011;13816;53.628;9.950;2023-04-03T18:11:25;12.70;;;3.00;;
26040;SDS011;13816;53.628;9.950;2023-04-03T18:13:52;3.33;;;2.13;;
26040;SDS011;13816;53.628;9.950;2023-04-03T18:16:19;3.90;;;2.50;;
26040;SDS011;13816;53.628;9.950;2023-04-03T18:18:45;3.97;;;2.03;;
26040;SDS011;13816;53.628;9.950;2023-04-03T18:21:14;2.80;;;2.27;;
26040;SDS011;13816;53.628;9.950;2023-04-03T18:23:42;2.73;;;1.73;;
26040;SDS011;13816;53.628;9.950;2023-04-03T18:26:10;3.67;;;1.87;;
26040;SDS011;13816;53.628;9.950;2023-04-03T18:28:37;4.47;;;2.30;;
26040;SDS011;13816;53.628;9.950;2023-04-03T18:31:04;5.10;;;1.80;;
26040;SDS011;13816;53.628;9.950;2023-04-03T18:33:30;9.90;;;2.37;;
26040;SDS011;13816;53.628;9.950;2023-04-03T18:35:57;11.47;;;3.30;;
26040;SDS011;13816;53.628;9.950;2023-04-03T18:38:23;6.33;;;3.43;;
26040;SDS011;13816;53.628;9.950;2023-04-03T18:40:50;12.00;;;3.87;;
26040;SDS011;13816;53.628;9.950;2023-04-03T18:43:16;7.10;;;3.67;;
26040;SDS011;13816;53.628;9.950;2023-04-03T18:45:42;6.60;;;3.43;;
26040;SDS011;13816;53.628;9.950;2023-04-03T18:48:09;5.50;;;3.27;;
26040;SDS011;13816;53.628;9.950;2023-04-03T18:50:35;5.00;;;3.53;;
26040;SDS011;13816;53.628;9.950;2023-04-03T18:53:04;6.80;;;3.20;;
26040;SDS011;13816;53.628;9.950;2023-04-03T18:55:30;6.13;;;3.17;;
26040;SDS011;13816;53.628;9.950;2023-04-03T18:57:57;9.03;;;3.90;;